Darlington, South Carolina
Current Conditions -  °F | °C
As of 9:35 PM on Wednesday 22 Oct 2014 (Local Time) from KUDG Reporting Station
Clear Clear  
Wind Chill: 13°   Ceiling: Unl
Heat Index: 13°   Visibility: 10mi
Dew Point:   Wind: 12mph
Humidity: 54%   Direction: 340°NNW
Pressure: 30.07"   Gusts: NA
Location:  34.3°N, 79.87°W
Report Text: KUDG 230135Z AUTO 34010KT 10SM CLR 13/04 A3007 RMK AO1
Loading
Personal Weather Stations






























Interactive Weather Map
Tropical Storm Tracking
New forecast layout! Learn more

10-Day Weather Forecast

Advertisements
Track Severe Weather on mobile